Time;durP1;ratioP1;P1;durP2;ratioP2;P2;SDS_P1;SDS_P2;PMS_P1;PMS_P2;Temp;Humidity;BMP_temperature;BMP_pressure;BME280_temperature;BME280_humidity;BME280_pressure;Samples;Min_cycle;Max_cycle;Signal;HPM_P1;HPM_P2
2022/12/28 00:00:25;;;;;;;;;;;;;;;5.60;96.44;101597.53;5077660;28;20444;-61
2022/12/28 00:02:50;;;;;;;;;;;;;;;5.60;96.31;101602.78;5074693;28;19924;-59
2022/12/28 00:05:16;;;;;;;;;;;;;;;5.62;96.49;101603.50;5081337;28;20360;-60
2022/12/28 00:07:42;;;;;;;;;;;;;;;5.65;96.58;101576.91;5081277;28;20469;-58
2022/12/28 00:10:07;;;;;;;;;;;;;;;5.68;96.45;101574.03;5083586;28;19916;-59
2022/12/28 00:12:32;;;;;;;;;;;;;;;5.67;96.39;101561.81;5077943;28;20533;-60
2022/12/28 00:14:58;;;;;;;;;;;;;;;5.68;96.37;101552.97;5082397;28;20337;-60
2022/12/28 00:17:23;;;;;;;;;;;;;;;5.66;96.33;101549.59;5081802;28;19920;-58
2022/12/28 00:19:48;;;;;;;;;;;;;;;5.69;96.63;101545.91;5082372;28;20418;-60
2022/12/28 00:22:13;;;;;;;;;;;;;;;5.71;96.34;101530.78;5075122;28;19924;-60
2022/12/28 00:24:38;;;;;;;;;;;;;;;5.72;96.25;101530.66;5076912;28;20499;-58
2022/12/28 00:27:03;;;;;;;;;;;;;;;5.72;96.21;101520.13;5075265;28;19920;-60
2022/12/28 00:29:29;;;;;;;;;;;;;;;5.74;96.40;101523.47;5081591;28;19970;-58
2022/12/28 00:31:54;;;;;;;;;;;;;;;5.74;96.25;101523.47;5075073;28;19916;-61
2022/12/28 00:34:19;;;;;;;;;;;;;;;5.74;96.26;101528.75;5077231;28;19950;-63
2022/12/28 00:36:44;;;;;;;;;;;;;;;5.74;95.88;101509.47;5082612;28;19916;-59
2022/12/28 00:39:10;;;;;;;;;;;;;;;5.73;95.83;101503.34;5081317;28;19917;-60
2022/12/28 00:41:35;;;;;;;;;;;;;;;5.76;96.13;101504.91;5083295;28;19916;-60
2022/12/28 00:44:00;;;;;;;;;;;;;;;5.77;96.13;101493.41;5080938;28;20046;-60
2022/12/28 00:46:25;;;;;;;;;;;;;;;5.79;96.22;101492.34;5086799;28;19931;-60
2022/12/28 00:48:50;;;;;;;;;;;;;;;5.81;96.21;101490.44;5080284;28;19919;-59
2022/12/28 00:51:17;;;;;;;;;;;;;;;5.82;96.04;101484.19;5078594;28;19965;-60
2022/12/28 00:53:42;;;;;;;;;;;;;;;5.83;96.16;101470.06;5078146;28;19977;-61
2022/12/28 00:56:11;;;;;;;;;;;;;;;5.85;95.95;101462.84;5080585;28;19916;-59
2022/12/28 00:58:37;;;;;;;;;;;;;;;5.87;95.96;101468.84;5094548;28;19958;-58
2022/12/28 01:01:03;;;;;;;;;;;;;;;5.90;95.96;101465.16;5078990;28;19959;-60
2022/12/28 01:03:28;;;;;;;;;;;;;;;5.90;95.88;101468.63;5075858;28;20529;-60
2022/12/28 01:05:53;;;;;;;;;;;;;;;5.92;95.77;101465.00;5087221;28;19912;-61
2022/12/28 01:08:18;;;;;;;;;;;;;;;5.95;96.00;101459.50;5089465;28;19922;-60
2022/12/28 01:10:44;;;;;;;;;;;;;;;5.98;96.02;101457.44;5081485;28;19920;-58
2022/12/28 01:13:09;;;;;;;;;;;;;;;6.03;95.62;101449.97;5075132;28;20335;-61
2022/12/28 01:15:34;;;;;;;;;;;;;;;6.07;95.75;101437.38;5076123;28;19913;-60
2022/12/28 01:17:59;;;;;;;;;;;;;;;6.09;95.70;101422.31;5082785;28;19920;-57
2022/12/28 01:20:24;;;;;;;;;;;;;;;6.12;95.50;101429.94;5080322;28;20003;-57
2022/12/28 01:22:49;;;;;;;;;;;;;;;6.15;95.58;101438.44;5080568;28;19916;-58
2022/12/28 01:25:15;;;;;;;;;;;;;;;6.17;95.30;101419.84;5091123;28;19915;-59
2022/12/28 01:27:40;;;;;;;;;;;;;;;6.19;95.19;101424.03;5086177;28;19966;-60
2022/12/28 01:30:07;;;;;;;;;;;;;;;6.23;94.96;101416.69;5091302;28;19916;-62
2022/12/28 01:32:32;;;;;;;;;;;;;;;6.26;95.00;101411.16;5079407;28;19999;-60
2022/12/28 01:34:57;;;;;;;;;;;;;;;6.28;95.13;101413.66;5083452;28;20015;-59
2022/12/28 01:37:22;;;;;;;;;;;;;;;6.31;94.64;101414.25;5087594;28;19942;-60
2022/12/28 01:39:47;;;;;;;;;;;;;;;6.32;94.84;101405.38;5083496;28;19959;-62
2022/12/28 01:42:17;;;;;;;;;;;;;;;6.35;94.76;101404.28;5081994;28;19977;-58
2022/12/28 01:44:43;;;;;;;;;;;;;;;6.37;94.59;101397.94;5085880;28;20338;-59
2022/12/28 01:47:11;;;;;;;;;;;;;;;6.36;94.72;101404.16;5080588;28;19912;-60
2022/12/28 01:49:42;;;;;;;;;;;;;;;6.36;94.43;101387.47;5084894;28;19939;-59
2022/12/28 01:52:07;;;;;;;;;;;;;;;6.39;94.73;101382.81;5086114;28;19924;-58
2022/12/28 01:54:39;;;;;;;;;;;;;;;6.40;94.35;101381.84;5083610;28;19942;-60
2022/12/28 01:57:04;;;;;;;;;;;;;;;6.47;94.44;101388.25;5076671;28;19920;-60
2022/12/28 01:59:32;;;;;;;;;;;;;;;6.50;93.91;101371.31;5083084;28;19920;-59
2022/12/28 02:01:57;;;;;;;;;;;;;;;6.52;93.94;101372.03;5081766;28;19917;-57
2022/12/28 02:04:23;;;;;;;;;;;;;;;6.53;94.12;101358.69;5083084;28;19924;-60
2022/12/28 02:06:49;;;;;;;;;;;;;;;6.57;94.18;101356.63;5088743;28;19917;-59
2022/12/28 02:09:19;;;;;;;;;;;;;;;6.58;93.86;101347.75;5075440;28;20398;-58
2022/12/28 02:11:45;;;;;;;;;;;;;;;6.56;93.92;101341.78;5083042;28;20426;-62
2022/12/28 02:14:12;;;;;;;;;;;;;;;6.50;94.60;101335.22;5081392;28;20006;-59
2022/12/28 02:16:37;;;;;;;;;;;;;;;6.37;95.00;101337.25;5083655;28;20057;-57
2022/12/28 02:19:04;;;;;;;;;;;;;;;6.27;95.52;101323.16;5077883;28;20026;-60
2022/12/28 02:21:40;;;;;;;;;;;;;;;6.25;96.39;101326.91;5085014;28;19920;-58
2022/12/28 02:24:05;;;;;;;;;;;;;;;6.20;97.10;101319.38;5084704;28;19928;-59
2022/12/28 02:26:37;;;;;;;;;;;;;;;6.20;97.53;101307.03;5083141;28;19916;-60
2022/12/28 02:29:12;;;;;;;;;;;;;;;6.20;97.82;101308.84;5085688;28;19923;-58
2022/12/28 02:31:40;;;;;;;;;;;;;;;6.20;98.15;101306.19;5092150;28;19917;-62
2022/12/28 02:34:17;;;;;;;;;;;;;;;6.15;98.71;101301.31;5082080;28;19969;-60
2022/12/28 02:36:46;;;;;;;;;;;;;;;6.17;98.96;101286.19;5082355;28;19917;-59
2022/12/28 02:39:18;;;;;;;;;;;;;;;6.23;98.97;101292.75;5083642;28;20003;-60
2022/12/28 02:41:43;;;;;;;;;;;;;;;6.27;99.15;101290.69;5074296;28;19923;-59
2022/12/28 02:44:09;;;;;;;;;;;;;;;6.26;99.43;101296.91;5077381;28;19924;-60
2022/12/28 02:52:40;;;;;;;;;;;;;;;6.06;100.00;101290.69;5080586;28;19981;-60
2022/12/28 02:58:08;;;;;;;;;;;;;;;5.98;100.00;101272.06;5019200;28;19963;-61
2022/12/28 03:00:52;;;;;;;;;;;;;;;5.96;100.00;101271.38;5066411;28;19920;-58
2022/12/28 03:03:27;;;;;;;;;;;;;;;5.96;100.00;101252.91;5078013;28;19946;-60
2022/12/28 03:09:00;;;;;;;;;;;;;;;5.93;100.00;101256.66;5088629;28;19957;-59
2022/12/28 03:11:32;;;;;;;;;;;;;;;5.93;100.00;101256.66;5085301;28;19924;-58
2022/12/28 03:14:04;;;;;;;;;;;;;;;5.94;100.00;101255.69;5093466;28;20002;-60
2022/12/28 03:25:41;;;;;;;;;;;;;;;5.94;100.00;101246.94;5081074;28;19920;-58
2022/12/28 03:33:02;;;;;;;;;;;;;;;6.11;100.00;101234.00;5078835;28;19924;-59
2022/12/28 03:35:36;;;;;;;;;;;;;;;6.14;100.00;101228.47;5077466;28;19917;-59
2022/12/28 03:38:02;;;;;;;;;;;;;;;6.17;100.00;101241.38;5071400;28;19931;-57
2022/12/28 03:40:31;;;;;;;;;;;;;;;6.20;100.00;101230.56;5079882;28;19917;-59
2022/12/28 03:45:48;;;;;;;;;;;;;;;6.27;100.00;101222.94;5077567;28;19977;-57
2022/12/28 03:48:14;;;;;;;;;;;;;;;6.34;100.00;101220.59;5085241;28;19915;-59
2022/12/28 03:50:41;;;;;;;;;;;;;;;6.43;100.00;101219.81;5074112;28;19971;-60
2022/12/28 03:53:07;;;;;;;;;;;;;;;6.53;100.00;101216.22;5075431;28;22030;-59
2022/12/28 03:55:34;;;;;;;;;;;;;;;6.59;100.00;101216.66;5082596;28;19916;-58
2022/12/28 03:57:59;;;;;;;;;;;;;;;6.64;100.00;101222.34;5085503;28;19923;-61
2022/12/28 04:00:24;;;;;;;;;;;;;;;6.68;100.00;101213.22;5086075;28;19916;-57
2022/12/28 04:02:50;;;;;;;;;;;;;;;6.75;100.00;101203.78;5083668;28;19955;-58
2022/12/28 04:05:15;;;;;;;;;;;;;;;6.79;100.00;101192.78;5088535;28;19912;-60
2022/12/28 04:07:40;;;;;;;;;;;;;;;6.83;100.00;101201.28;5085421;28;19912;-60
2022/12/28 04:10:05;;;;;;;;;;;;;;;6.88;100.00;101209.59;5099559;28;19920;-57
2022/12/28 04:12:30;;;;;;;;;;;;;;;6.93;100.00;101190.72;5077155;28;19963;-58
2022/12/28 04:14:56;;;;;;;;;;;;;;;6.87;100.00;101199.19;5080316;28;19923;-60
2022/12/28 04:17:21;;;;;;;;;;;;;;;6.80;100.00;101196.28;5085879;28;19963;-57
2022/12/28 04:19:46;;;;;;;;;;;;;;;6.77;100.00;101200.03;5079636;28;19923;-60
2022/12/28 04:22:11;;;;;;;;;;;;;;;6.80;100.00;101180.44;5071966;28;19920;-58
2022/12/28 04:24:36;;;;;;;;;;;;;;;6.86;100.00;101203.63;5080473;28;19921;-59
2022/12/28 04:27:01;;;;;;;;;;;;;;;6.88;100.00;101193.78;5084549;28;19917;-58
2022/12/28 04:29:27;;;;;;;;;;;;;;;6.92;100.00;101189.88;5082343;28;20375;-59
2022/12/28 04:31:52;;;;;;;;;;;;;;;6.99;100.00;101192.81;5076861;28;19923;-56
2022/12/28 04:34:17;;;;;;;;;;;;;;;7.04;100.00;101199.34;5080498;28;20420;-60
2022/12/28 04:36:42;;;;;;;;;;;;;;;7.09;100.00;101198.94;5080557;28;19922;-60
2022/12/28 04:39:08;;;;;;;;;;;;;;;7.12;100.00;101194.19;5083056;28;19920;-63
2022/12/28 04:41:33;;;;;;;;;;;;;;;7.15;100.00;101193.91;5080551;28;20030;-62
2022/12/28 04:43:58;;;;;;;;;;;;;;;7.18;100.00;101189.31;5080031;28;19946;-59
2022/12/28 04:46:24;;;;;;;;;;;;;;;7.20;100.00;101187.38;5083265;28;20383;-60
2022/12/28 04:48:49;;;;;;;;;;;;;;;7.22;100.00;101194.19;5082205;28;19916;-59
2022/12/28 04:51:22;;;;;;;;;;;;;;;7.26;100.00;101192.94;5080405;28;19924;-62
2022/12/28 04:53:47;;;;;;;;;;;;;;;7.31;100.00;101192.53;5079169;28;19938;-58
2022/12/28 04:56:13;;;;;;;;;;;;;;;7.30;100.00;101178.50;5078495;28;19920;-59
2022/12/28 04:58:39;;;;;;;;;;;;;;;7.32;100.00;101165.97;5079417;28;19916;-59
2022/12/28 05:01:09;;;;;;;;;;;;;;;7.35;100.00;101167.50;5077588;28;19924;-58
2022/12/28 05:03:35;;;;;;;;;;;;;;;7.37;100.00;101163.72;5084845;28;19939;-58
2022/12/28 05:06:04;;;;;;;;;;;;;;;7.37;100.00;101162.91;5087883;28;19923;-60
2022/12/28 05:08:30;;;;;;;;;;;;;;;7.39;100.00;101155.66;5088852;28;20457;-60
2022/12/28 05:10:58;;;;;;;;;;;;;;;7.41;100.00;101159.81;5088563;28;19920;-59
2022/12/28 05:13:23;;;;;;;;;;;;;;;7.41;100.00;101159.81;5085132;28;19920;-58
2022/12/28 05:15:48;;;;;;;;;;;;;;;7.41;100.00;101157.19;5085299;28;19955;-59
2022/12/28 05:18:13;;;;;;;;;;;;;;;7.41;100.00;101159.00;5094952;28;20008;-60
2022/12/28 05:20:38;;;;;;;;;;;;;;;7.41;100.00;101169.56;5077728;28;19985;-58
2022/12/28 05:23:04;;;;;;;;;;;;;;;7.37;100.00;101169.00;5089556;28;19923;-60
2022/12/28 05:25:29;;;;;;;;;;;;;;;7.35;100.00;101164.84;5083830;28;20300;-57
2022/12/28 05:27:54;;;;;;;;;;;;;;;7.30;100.00;101170.56;5083530;28;19916;-59
2022/12/28 05:30:19;;;;;;;;;;;;;;;7.22;100.00;101172.22;5079947;28;19912;-60
2022/12/28 05:32:44;;;;;;;;;;;;;;;7.14;100.00;101171.13;5080292;28;20380;-61
2022/12/28 05:35:09;;;;;;;;;;;;;;;7.09;100.00;101170.72;5081130;28;20007;-58
2022/12/28 05:37:35;;;;;;;;;;;;;;;7.07;100.00;101167.38;5080574;28;20326;-60
2022/12/28 05:40:00;;;;;;;;;;;;;;;7.04;100.00;101161.53;5081624;28;19959;-59
2022/12/28 05:42:25;;;;;;;;;;;;;;;7.04;100.00;101162.38;5088033;28;19920;-58
2022/12/28 05:44:50;;;;;;;;;;;;;;;7.03;100.00;101165.16;5081713;28;20288;-58
2022/12/28 05:47:16;;;;;;;;;;;;;;;7.01;100.00;101151.28;5088584;28;19916;-61
2022/12/28 05:49:41;;;;;;;;;;;;;;;7.01;100.00;101156.56;5084494;28;19923;-58
2022/12/28 05:52:06;;;;;;;;;;;;;;;7.00;100.00;101153.06;5085121;28;19958;-58
2022/12/28 05:54:31;;;;;;;;;;;;;;;7.01;100.00;101153.91;5082090;28;20592;-59
2022/12/28 05:56:57;;;;;;;;;;;;;;;7.01;100.00;101149.47;5084039;28;19916;-61
2022/12/28 05:59:22;;;;;;;;;;;;;;;7.02;100.00;101145.84;5081025;28;19987;-58
2022/12/28 06:01:47;;;;;;;;;;;;;;;7.03;100.00;101142.22;5079659;28;19962;-57
2022/12/28 06:04:14;;;;;;;;;;;;;;;7.05;100.00;101126.25;5083337;28;19961;-61
2022/12/28 06:06:39;;;;;;;;;;;;;;;7.05;100.00;101116.50;5081025;28;19939;-59
2022/12/28 06:09:05;;;;;;;;;;;;;;;7.07;100.00;101134.84;5078805;28;20294;-61
2022/12/28 06:11:30;;;;;;;;;;;;;;;7.08;100.00;101126.78;5076452;28;20375;-58
2022/12/28 06:13:56;;;;;;;;;;;;;;;7.07;100.00;101117.22;5083733;28;19920;-61
2022/12/28 06:16:28;;;;;;;;;;;;;;;7.09;100.00;101115.25;5088826;28;19916;-58
2022/12/28 06:18:54;;;;;;;;;;;;;;;7.11;100.00;101115.09;5081448;28;19916;-59
2022/12/28 06:21:20;;;;;;;;;;;;;;;7.09;100.00;101111.78;5076382;28;20390;-59
2022/12/28 06:23:46;;;;;;;;;;;;;;;7.11;100.00;101113.31;5076609;28;20361;-60
2022/12/28 06:26:12;;;;;;;;;;;;;;;7.12;100.00;101109.69;5079087;28;20003;-61
2022/12/28 06:28:38;;;;;;;;;;;;;;;7.14;100.00;101114.81;5083451;28;19923;-58
2022/12/28 06:31:04;;;;;;;;;;;;;;;7.16;100.00;101110.22;5085736;28;19924;-60
2022/12/28 06:33:30;;;;;;;;;;;;;;;7.18;100.00;101105.63;5083899;28;19916;-60
2022/12/28 06:35:55;;;;;;;;;;;;;;;7.19;100.00;101103.81;5090197;28;19916;-62
2022/12/28 06:38:20;;;;;;;;;;;;;;;7.21;100.00;101094.78;5076692;28;21484;-59
2022/12/28 06:40:45;;;;;;;;;;;;;;;7.23;100.00;101092.00;5088072;28;20383;-58
2022/12/28 06:43:10;;;;;;;;;;;;;;;7.24;100.00;101110.38;5079352;28;20003;-59
2022/12/28 06:45:36;;;;;;;;;;;;;;;7.24;100.00;101099.81;5080562;28;19942;-60
2022/12/28 06:48:01;;;;;;;;;;;;;;;7.26;100.00;101097.03;5075559;28;20517;-60
2022/12/28 06:50:26;;;;;;;;;;;;;;;7.26;100.00;101099.66;5077962;28;19916;-60
2022/12/28 06:52:51;;;;;;;;;;;;;;;7.27;100.00;101099.53;5078943;28;20384;-59
2022/12/28 06:55:16;;;;;;;;;;;;;;;7.28;100.00;101106.47;5088451;28;19916;-58
2022/12/28 06:57:41;;;;;;;;;;;;;;;7.30;100.00;101099.25;5078810;28;20308;-59
2022/12/28 07:00:07;;;;;;;;;;;;;;;7.31;100.00;101094.78;5079080;28;19916;-58
2022/12/28 07:02:32;;;;;;;;;;;;;;;7.31;100.00;101094.78;5081678;28;19948;-61
2022/12/28 07:04:57;;;;;;;;;;;;;;;7.33;100.00;101095.47;5083316;28;19916;-59
2022/12/28 07:07:22;;;;;;;;;;;;;;;7.35;100.00;101091.72;5078355;28;19981;-60
2022/12/28 07:09:48;;;;;;;;;;;;;;;7.36;100.00;101092.53;5080573;28;19916;-57
2022/12/28 07:12:13;;;;;;;;;;;;;;;7.38;100.00;101096.69;5080549;28;20050;-57
2022/12/28 07:14:38;;;;;;;;;;;;;;;7.39;100.00;101087.81;5083314;28;19946;-59
2022/12/28 07:17:03;;;;;;;;;;;;;;;7.39;100.00;101087.81;5074942;28;19920;-61
2022/12/28 07:19:28;;;;;;;;;;;;;;;7.41;100.00;101095.59;5087376;28;19916;-60
2022/12/28 07:21:54;;;;;;;;;;;;;;;7.42;100.00;101095.44;5080852;28;19924;-57
2022/12/28 07:24:19;;;;;;;;;;;;;;;7.43;100.00;101091.81;5074682;28;20536;-61
2022/12/28 07:26:44;;;;;;;;;;;;;;;7.47;100.00;101093.19;5078860;28;19923;-60
2022/12/28 07:29:09;;;;;;;;;;;;;;;7.52;100.00;101091.91;5087798;28;19957;-61
2022/12/28 07:31:36;;;;;;;;;;;;;;;7.55;100.00;101092.50;5080756;28;19950;-58
2022/12/28 07:34:02;;;;;;;;;;;;;;;7.59;100.00;101091.22;5072574;28;19986;-57
2022/12/28 07:36:28;;;;;;;;;;;;;;;7.62;100.00;101093.56;5073273;28;20038;-60
2022/12/28 07:38:54;;;;;;;;;;;;;;;7.64;100.00;101086.31;5081790;28;19916;-58
2022/12/28 07:41:23;;;;;;;;;;;;;;;7.67;100.00;101091.31;5078609;28;19923;-61
2022/12/28 07:43:49;;;;;;;;;;;;;;;7.71;100.00;101097.13;5093188;28;20010;-61
2022/12/28 07:46:15;;;;;;;;;;;;;;;7.73;100.00;101090.72;5077429;28;20002;-59
2022/12/28 07:48:41;;;;;;;;;;;;;;;7.76;100.00;101097.53;5078632;28;19916;-58
2022/12/28 07:51:12;;;;;;;;;;;;;;;7.81;100.00;101102.41;5079757;28;19942;-57
2022/12/28 07:53:38;;;;;;;;;;;;;;;7.81;100.00;101094.47;5082435;28;19916;-60
2022/12/28 07:56:04;;;;;;;;;;;;;;;7.85;100.00;101103.78;5080905;28;20031;-59
2022/12/28 07:58:29;;;;;;;;;;;;;;;7.88;100.00;101106.13;5080313;28;20503;-58
2022/12/28 08:01:01;;;;;;;;;;;;;;;7.90;100.00;101106.81;5079375;28;21650;-57
2022/12/28 08:03:26;;;;;;;;;;;;;;;7.92;100.00;101099.56;5079507;28;19920;-58
2022/12/28 08:05:52;;;;;;;;;;;;;;;7.91;100.00;101103.19;5074086;28;20261;-61
2022/12/28 08:08:17;;;;;;;;;;;;;;;7.89;100.00;101103.34;5077208;28;20414;-61
2022/12/28 08:10:42;;;;;;;;;;;;;;;7.84;100.00;101096.81;5074022;28;19920;-60
2022/12/28 08:13:07;;;;;;;;;;;;;;;7.81;100.00;101105.88;5081791;28;20607;-58
2022/12/28 08:15:32;;;;;;;;;;;;;;;7.78;100.00;101100.84;5082905;28;19916;-58
2022/12/28 08:17:57;;;;;;;;;;;;;;;7.76;100.00;101100.16;5073222;28;19916;-57
2022/12/28 08:20:22;;;;;;;;;;;;;;;7.75;100.00;101087.94;5077049;28;19920;-57
2022/12/28 08:22:48;;;;;;;;;;;;;;;7.74;100.00;101097.69;5077946;28;19928;-59
2022/12/28 08:25:13;;;;;;;;;;;;;;;7.70;100.00;101098.13;5077745;28;19916;-58
2022/12/28 08:27:38;;;;;;;;;;;;;;;7.66;100.00;101087.00;5088929;28;20014;-61
2022/12/28 08:30:04;;;;;;;;;;;;;;;7.65;100.00;101087.16;5071634;28;19924;-58
2022/12/28 08:32:29;;;;;;;;;;;;;;;7.63;100.00;101084.66;5074244;28;19970;-60
2022/12/28 08:34:54;;;;;;;;;;;;;;;7.62;100.00;101092.72;5079141;28;19966;-60
2022/12/28 08:37:20;;;;;;;;;;;;;;;7.61;100.00;101086.63;5087953;28;19912;-58
2022/12/28 08:39:45;;;;;;;;;;;;;;;7.62;100.00;101085.63;5081510;28;19966;-61
2022/12/28 08:42:10;;;;;;;;;;;;;;;7.63;100.00;101084.66;5081620;28;20034;-56
2022/12/28 08:44:35;;;;;;;;;;;;;;;7.64;100.00;101086.31;5088596;28;19994;-57
2022/12/28 08:47:00;;;;;;;;;;;;;;;7.65;100.00;101082.69;5086509;28;20379;-60
2022/12/28 08:49:26;;;;;;;;;;;;;;;7.76;100.00;101094.88;5074255;28;19967;-59
2022/12/28 08:51:51;;;;;;;;;;;;;;;7.81;100.00;101076.81;5083695;28;19916;-60
2022/12/28 08:54:16;;;;;;;;;;;;;;;7.86;100.00;101085.13;5091928;28;19919;-58
2022/12/28 08:56:42;;;;;;;;;;;;;;;7.92;100.00;101075.75;5084145;28;19916;-57
2022/12/28 08:59:07;;;;;;;;;;;;;;;7.98;100.00;101073.34;5083323;28;19917;-62
2022/12/28 09:01:34;;;;;;;;;;;;;;;8.02;100.00;101072.06;5089692;28;19944;-59
2022/12/28 09:03:59;;;;;;;;;;;;;;;8.07;100.00;101075.09;5091653;28;20422;-60
2022/12/28 09:06:35;;;;;;;;;;;;;;;8.12;100.00;101079.13;5092829;28;20010;-57
2022/12/28 09:09:01;;;;;;;;;;;;;;;8.12;100.00;101090.56;5087873;28;19920;-60
2022/12/28 09:11:26;;;;;;;;;;;;;;;8.13;100.00;101075.50;5076801;28;19965;-58
2022/12/28 09:13:51;;;;;;;;;;;;;;;8.14;100.00;101085.09;5081437;28;19912;-61
2022/12/28 09:16:18;;;;;;;;;;;;;;;8.08;100.00;101082.03;5078780;28;19924;-59
2022/12/28 09:18:44;;;;;;;;;;;;;;;8.06;100.00;101085.81;5081631;28;19916;-63
2022/12/28 09:21:12;;;;;;;;;;;;;;;7.98;100.00;101083.09;5077103;28;20330;-59
2022/12/28 09:23:37;;;;;;;;;;;;;;;7.94;100.00;101087.84;5084520;28;19953;-60
2022/12/28 09:26:03;;;;;;;;;;;;;;;7.90;100.00;101080.38;5086220;28;21217;-57
2022/12/28 09:28:28;;;;;;;;;;;;;;;7.85;100.00;101083.44;5077470;28;20032;-59
2022/12/28 09:30:53;;;;;;;;;;;;;;;7.79;100.00;101076.09;5085407;28;20003;-59
2022/12/28 09:36:02;;;;;;;;;;;;;;;7.71;100.00;101083.91;5091515;28;19969;-61
2022/12/28 09:38:29;;;;;;;;;;;;;;;7.70;100.00;101083.09;5085566;28;19920;-63
2022/12/28 09:40:54;;;;;;;;;;;;;;;7.70;100.00;101077.81;5083070;28;19928;-59
2022/12/28 09:43:20;;;;;;;;;;;;;;;7.69;100.00;101084.06;5078290;28;19929;-59
2022/12/28 09:45:46;;;;;;;;;;;;;;;7.69;100.00;101077.94;5085882;28;20383;-61
2022/12/28 09:48:15;;;;;;;;;;;;;;;7.68;100.00;101081.56;5074408;28;20017;-58
2022/12/28 09:50:40;;;;;;;;;;;;;;;7.68;100.00;101081.56;5077062;28;19919;-60
2022/12/28 09:53:05;;;;;;;;;;;;;;;7.69;100.00;101077.94;5084787;28;19941;-60
2022/12/28 09:55:32;;;;;;;;;;;;;;;7.70;100.00;101079.63;5085248;28;19959;-60
2022/12/28 09:57:58;;;;;;;;;;;;;;;7.68;100.00;101065.72;5074581;28;19950;-61
2022/12/28 10:00:32;;;;;;;;;;;;;;;7.74;100.00;101079.16;5079120;28;19923;-58
2022/12/28 10:03:00;;;;;;;;;;;;;;;7.75;100.00;101072.91;5079107;28;19940;-59
2022/12/28 10:05:26;;;;;;;;;;;;;;;7.78;100.00;101072.59;5080332;28;19920;-60
2022/12/28 10:07:53;;;;;;;;;;;;;;;7.86;100.00;101071.06;5087004;28;19912;-60
2022/12/28 10:10:20;;;;;;;;;;;;;;;7.90;100.00;101070.63;5081018;28;19924;-60
2022/12/28 10:12:46;;;;;;;;;;;;;;;7.94;100.00;101073.81;5088207;28;19912;-58
2022/12/28 10:15:12;;;;;;;;;;;;;;;7.95;100.00;101068.34;5080569;28;19946;-58
2022/12/28 10:17:37;;;;;;;;;;;;;;;7.95;100.00;101068.34;5091353;28;19912;-60
2022/12/28 10:20:05;;;;;;;;;;;;;;;7.96;100.00;101069.19;5095707;28;19931;-59
2022/12/28 10:22:36;;;;;;;;;;;;;;;7.94;100.00;101071.97;5085591;28;19920;-56
2022/12/28 10:25:01;;;;;;;;;;;;;;;7.92;100.00;101062.53;5078623;28;20561;-60
2022/12/28 10:27:29;;;;;;;;;;;;;;;7.89;100.00;101066.31;5078781;28;19916;-61
2022/12/28 10:29:54;;;;;;;;;;;;;;;7.88;100.00;101062.00;5077057;28;20651;-59
2022/12/28 10:32:20;;;;;;;;;;;;;;;7.87;100.00;101056.88;5076786;28;20014;-59
2022/12/28 10:34:58;;;;;;;;;;;;;;;7.86;100.00;101057.84;5084345;28;19916;-59
2022/12/28 10:37:25;;;;;;;;;;;;;;;7.85;100.00;101046.44;5093781;28;19972;-64
2022/12/28 10:39:52;;;;;;;;;;;;;;;7.84;100.00;101049.22;5080058;28;20524;-58
2022/12/28 10:42:23;;;;;;;;;;;;;;;7.85;100.00;101061.47;5078640;28;20003;-57
2022/12/28 10:44:48;;;;;;;;;;;;;;;7.85;100.00;101045.59;5078759;28;19921;-58
2022/12/28 10:47:24;;;;;;;;;;;;;;;7.85;100.00;101057.00;5084090;28;19968;-63
2022/12/28 10:49:50;;;;;;;;;;;;;;;7.85;100.00;101045.59;5079523;28;19923;-60
2022/12/28 10:52:15;;;;;;;;;;;;;;;7.84;100.00;101044.78;5082216;28;19924;-61
2022/12/28 10:54:41;;;;;;;;;;;;;;;7.85;100.00;101045.59;5089867;28;19915;-60
2022/12/28 10:57:24;;;;;;;;;;;;;;;7.84;100.00;101043.94;5081209;28;19912;-61
2022/12/28 10:59:50;;;;;;;;;;;;;;;7.86;100.00;101041.97;5096882;28;19912;-59
2022/12/28 11:02:28;;;;;;;;;;;;;;;7.84;100.00;101034.19;5079430;27;19961;-59
2022/12/28 11:05:02;;;;;;;;;;;;;;;7.85;100.00;101042.97;5088612;28;19961;-59
2022/12/28 11:07:27;;;;;;;;;;;;;;;7.85;100.00;101030.56;5082082;28;19951;-58
2022/12/28 11:09:52;;;;;;;;;;;;;;;7.85;100.00;101025.28;5082065;28;20418;-60
2022/12/28 11:12:25;;;;;;;;;;;;;;;7.86;100.00;101016.38;5075877;28;20565;-60
2022/12/28 11:14:55;;;;;;;;;;;;;;;7.86;100.00;101013.72;5075097;28;20035;-58
2022/12/28 11:17:21;;;;;;;;;;;;;;;7.86;100.00;101013.72;5076865;28;19916;-61
2022/12/28 11:19:48;;;;;;;;;;;;;;;7.87;100.00;101018.03;5072099;28;19917;-59
2022/12/28 11:22:17;;;;;;;;;;;;;;;7.87;100.00;101012.75;5081633;28;20353;-58
2022/12/28 11:24:43;;;;;;;;;;;;;;;7.88;100.00;101011.75;5082065;28;19999;-61
2022/12/28 11:27:12;;;;;;;;;;;;;;;7.89;100.00;101002.03;5074991;28;20007;-60
2022/12/28 11:29:38;;;;;;;;;;;;;;;7.90;100.00;100995.75;5086109;28;20314;-59
2022/12/28 11:32:07;;;;;;;;;;;;;;;7.91;100.00;100997.41;5081874;28;19924;-59
2022/12/28 11:34:33;;;;;;;;;;;;;;;7.92;100.00;100991.97;5084197;28;19916;-58
2022/12/28 11:36:59;;;;;;;;;;;;;;;7.92;100.00;100983.22;5081361;28;19944;-60
2022/12/28 11:39:24;;;;;;;;;;;;;;;7.92;100.00;100991.16;5080078;28;20331;-60
2022/12/28 11:41:51;;;;;;;;;;;;;;;7.92;100.00;101004.38;5084651;28;19938;-58
2022/12/28 11:44:28;;;;;;;;;;;;;;;7.93;100.00;100975.13;5082730;28;20742;-59
2022/12/28 11:47:12;;;;;;;;;;;;;;;7.91;100.00;100989.47;5081434;28;19989;-58
2022/12/28 11:49:37;;;;;;;;;;;;;;;7.92;100.00;100977.91;5078818;28;20014;-61
2022/12/28 11:52:15;;;;;;;;;;;;;;;7.91;100.00;100974.44;5083234;28;20003;-58
2022/12/28 11:54:46;;;;;;;;;;;;;;;7.90;100.00;100979.88;5085262;28;20037;-59
2022/12/28 11:57:11;;;;;;;;;;;;;;;7.89;100.00;100970.28;5078205;28;20010;-58
2022/12/28 11:59:36;;;;;;;;;;;;;;;7.90;100.00;100970.13;5076692;28;20011;-60
2022/12/28 12:02:21;;;;;;;;;;;;;;;7.88;100.00;100969.47;5083242;28;20287;-60
2022/12/28 12:04:47;;;;;;;;;;;;;;;7.87;100.00;100951.94;5079674;28;19921;-58
2022/12/28 12:07:15;;;;;;;;;;;;;;;7.86;100.00;100947.63;5080787;28;19920;-59
2022/12/28 12:09:42;;;;;;;;;;;;;;;7.87;100.00;100951.94;5080360;28;20421;-60
2022/12/28 12:12:13;;;;;;;;;;;;;;;7.86;100.00;100958.22;5073762;28;19959;-60
2022/12/28 12:14:43;;;;;;;;;;;;;;;7.87;100.00;100943.16;5077648;28;19927;-61
2022/12/28 12:17:11;;;;;;;;;;;;;;;7.88;100.00;100944.84;5079592;28;19915;-61
2022/12/28 12:19:37;;;;;;;;;;;;;;;7.91;100.00;100939.25;5072410;28;19974;-59
2022/12/28 12:22:19;;;;;;;;;;;;;;;7.91;100.00;100933.94;5078661;28;20379;-57
2022/12/28 12:24:53;;;;;;;;;;;;;;;7.90;100.00;100927.00;5080845;28;19921;-60
2022/12/28 12:27:26;;;;;;;;;;;;;;;7.90;100.00;100927.00;5072023;28;19965;-61
2022/12/28 12:30:10;;;;;;;;;;;;;;;7.93;100.00;100922.25;5072211;28;20307;-64
2022/12/28 12:32:41;;;;;;;;;;;;;;;7.98;100.00;100911.19;5082660;28;19924;-60
2022/12/28 12:35:12;;;;;;;;;;;;;;;8.05;100.00;100912.25;5080493;28;19920;-59
2022/12/28 12:37:52;;;;;;;;;;;;;;;8.12;100.00;100909.84;5074038;28;20388;-64
2022/12/28 12:40:36;;;;;;;;;;;;;;;8.17;100.00;100908.41;5077344;28;20429;-58
2022/12/28 12:43:20;;;;;;;;;;;;;;;8.22;100.00;100892.06;5079684;28;19920;-61
2022/12/28 12:46:02;;;;;;;;;;;;;;;8.29;100.00;100891.28;5080267;28;19920;-60
2022/12/28 12:48:39;;;;;;;;;;;;;;;8.32;100.00;100888.31;5076610;28;19928;-58
2022/12/28 12:51:12;;;;;;;;;;;;;;;8.36;100.00;100875.66;5076238;28;19959;-61
2022/12/28 12:53:40;;;;;;;;;;;;;;;8.38;100.00;100874.53;5073433;28;19931;-59
2022/12/28 12:56:23;;;;;;;;;;;;;;;8.43;100.00;100860.00;5076903;28;19920;-60
2022/12/28 12:59:15;;;;;;;;;;;;;;;8.46;100.00;100865.81;5080130;28;19912;-59
2022/12/28 13:01:58;;;;;;;;;;;;;;;8.50;100.00;100861.03;5074581;28;20175;-57
2022/12/28 13:04:25;;;;;;;;;;;;;;;8.51;100.00;100857.41;5075440;28;19947;-60
2022/12/28 13:06:54;;;;;;;;;;;;;;;8.52;100.00;100838.72;5076837;28;19917;-58
2022/12/28 13:09:19;;;;;;;;;;;;;;;8.55;100.00;100835.75;5071733;28;20423;-60